Latest Weather Observations for Darwin Harbour

IDD60901

Issued at 9:25 pm CST Saturday 20 September 2014 (issued every 10 minutes, with the page automatically refreshed every 10 minutes)

About weather observations | Map of Darwin area stations | Latest observations for Darwin area | Other Formats
Station Details ID: 014072 Name: DARWIN NTC AWS Lat: -12.47 Lon: 130.85 Height: 0.0 m
Data from the previous 72 hours. | See also: Recent months for locations in Northern Territory
Date/Time
CST
Tmp

°C
App
Tmp
°C
Dew
Point
°C
Rel
Hum
%
Delta-T

°C
Wind Press
QNH
hPa
Press
MSL
hPa
Rain
since
9 am
mm
Dir
 
Spd
km/h
Gust
km/h
Spd
kts
Gust
kts
20/09:00pm 29.0 - - - - E 6 7 3 4 1012.3 1012.2 -
20/08:30pm 29.0 - - - - E 4 6 2 3 1012.0 1011.9 -
20/08:00pm 29.0 - - - - ENE 6 9 3 5 1011.7 1011.6 -
20/07:30pm 29.2 - - - - NE 6 9 3 5 1011.3 1011.2 -
20/07:00pm 29.3 - - - - NNE 6 9 3 5 1010.6 1010.5 -
20/06:30pm 29.7 - - - - NE 13 30 7 16 1010.0 1009.9 -
20/06:00pm 30.4 - - - - NE 17 35 9 19 1009.4 1009.3 -
20/05:30pm 31.5 - - - - NNE 17 33 9 18 1008.8 1008.7 -
20/05:00pm 31.9 - - - - NNE 20 37 11 20 1008.5 1008.4 -
20/04:30pm 31.8 - - - - NNE 22 37 12 20 1008.5 1008.4 -
20/04:00pm 31.9 - - - - N 15 24 8 13 1008.9 1008.8 -
20/03:30pm 30.6 - - - - NNW 15 28 8 15 1009.4 1009.3 -
20/03:00pm 29.9 - - - - NW 11 24 6 13 1010.0 1009.9 -
20/02:30pm 29.8 - - - - N 20 33 11 18 1010.4 1010.3 -
20/02:00pm 29.8 - - - - NNW 19 28 10 15 1011.0 1010.9 -
20/01:30pm 29.2 - - - - NNW 19 30 10 16 1011.6 1011.5 -
20/01:00pm 29.4 - - - - NW 11 22 6 12 1012.3 1012.2 -
20/12:30pm 28.6 - - - - W 11 26 6 14 1012.7 1012.6 -
20/12:00pm 31.2 - - - - SSW 6 17 3 9 1013.6 1013.5 -
20/11:30am 28.8 - - - - S 4 6 2 3 1014.2 1014.1 -
20/11:00am 27.6 - - - - S 9 11 5 6 1014.7 1014.6 -
20/10:30am 27.1 - - - - SSW 6 7 3 4 1015.2 1015.1 -
20/10:00am 26.6 - - - - S 6 7 3 4 1015.4 1015.3 -
20/09:30am 26.8 - - - - SSE 4 7 2 4 1015.2 1015.1 -
20/09:00am 26.1 - - - - SSE 4 7 2 4 1014.9 1014.8 -
20/08:30am 25.5 - - - - SE 7 11 4 6 1014.6 1014.5 -
20/08:00am 25.5 - - - - SE 7 13 4 7 1014.4 1014.3 -
20/07:30am 26.1 - - - - SW 6 7 3 4 1014.1 1014.0 -
20/07:00am 26.7 - - - - WSW 4 6 2 3 1013.7 1013.6 -
20/06:30am 25.8 - - - - W 6 7 3 4 1013.2 1013.1 -
20/06:00am 25.6 - - - - WNW 4 7 2 4 1012.8 1012.7 -
20/05:30am 25.8 - - - - WNW 7 9 4 5 1012.5 1012.4 -
20/05:00am 26.0 - - - - WNW 7 9 4 5 1012.5 1012.4 -
20/04:30am 26.0 - - - - WNW 6 7 3 4 1012.5 1012.4 -
20/04:00am 26.0 - - - - WNW 4 4 2 2 1012.7 1012.6 -
20/03:30am 26.3 - - - - WNW 4 6 2 3 1012.8 1012.7 -
20/03:00am 26.2 - - - - WNW 4 6 2 3 1012.8 1012.7 -
20/02:30am 26.3 - - - - W 2 4 1 2 1013.1 1013.0 -
20/02:00am 26.3 - - - - CALM 0 0 0 0 1013.6 1013.5 -
20/01:30am 26.7 - - - - CALM 0 2 0 1 1013.9 1013.8 -
20/01:00am 26.3 - - - - CALM 0 0 0 0 1014.2 1014.1 -
20/12:30am 26.5 - - - - CALM 0 2 0 1 1014.6 1014.5 -
20/12:00am 26.7 - - - - CALM 0 2 0 1 1014.6 1014.5 -
 
Date/Time
CST
Tmp

°C
App
Tmp
°C
Dew
Point
°C
Rel
Hum
%
Delta-T

°C
Wind Press
QNH
hPa
Press
MSL
hPa
Rain
since
9 am
mm
Dir
 
Spd
km/h
Gust
km/h
Spd
kts
Gust
kts
19/11:30pm 26.6 - - - - WSW 2 4 1 2 1014.8 1014.7 -
19/11:00pm 26.5 - - - - WSW 4 7 2 4 1014.7 1014.6 -
19/10:30pm 26.5 - - - - W 6 9 3 5 1014.4 1014.3 -
19/10:00pm 26.6 - - - - WNW 7 13 4 7 1014.0 1013.9 -
19/09:30pm 27.1 - - - - WSW 13 17 7 9 1013.8 1013.7 -
19/09:00pm 27.3 - - - - SW 17 20 9 11 1013.0 1012.9 -
19/08:30pm 27.7 - - - - SW 15 20 8 11 1012.6 1012.5 -
19/08:00pm 27.9 - - - - WSW 15 19 8 10 1012.3 1012.2 -
19/07:30pm 28.2 - - - - W 11 13 6 7 1012.0 1011.9 -
19/07:00pm 28.4 - - - - W 15 19 8 10 1011.4 1011.3 -
19/06:30pm 28.7 - - - - W 17 24 9 13 1010.8 1010.7 -
19/06:00pm 30.7 - - - - WNW 11 19 6 10 1010.2 1010.1 -
19/05:30pm 30.3 - - - - WNW 17 24 9 13 1009.7 1009.6 -
19/05:00pm 29.6 - - - - WNW 19 26 10 14 1009.7 1009.6 -
19/04:30pm 29.5 - - - - WNW 19 26 10 14 1009.8 1009.7 -
19/04:00pm 30.3 - - - - NNW 15 26 8 14 1009.7 1009.6 -
19/03:30pm 30.7 - - - - N 19 32 10 17 1010.0 1009.9 -
19/03:00pm 30.2 - - - - WNW 19 32 10 17 1010.3 1010.2 -
19/02:30pm 31.0 - - - - NW 20 35 11 19 1010.4 1010.3 -
19/02:00pm 31.1 - - - - WNW 7 17 4 9 1011.0 1010.9 -
19/01:30pm 30.3 - - - - W 11 17 6 9 1011.6 1011.5 -
19/01:00pm 31.8 - - - - SSW 6 11 3 6 1012.1 1012.0 -
19/12:30pm 30.0 - - - - WSW 7 13 4 7 1012.7 1012.6 -
19/12:00pm 28.7 - - - - WSW 11 15 6 8 1013.4 1013.3 -
19/11:30am 28.3 - - - - WSW 6 11 3 6 1014.2 1014.1 -
19/11:00am 27.9 - - - - SSW 7 11 4 6 1014.8 1014.7 -
19/10:30am 27.2 - - - - S 7 9 4 5 1015.3 1015.2 -
19/10:00am 26.6 - - - - S 9 13 5 7 1015.6 1015.5 -
19/09:30am 26.2 - - - - S 7 9 4 5 1015.5 1015.4 -
19/09:00am 26.2 - - - - SE 6 7 3 4 1015.6 1015.5 -
19/08:30am 25.7 - - - - SE 6 9 3 5 1015.3 1015.2 -
19/08:00am 25.7 - - - - SE 6 9 3 5 1014.9 1014.8 -
19/07:30am 25.4 - - - - SSE 4 6 2 3 1014.6 1014.5 -
19/07:00am 25.3 - - - - ESE 6 9 3 5 1014.3 1014.2 -
19/06:30am 25.2 - - - - SE 6 9 3 5 1014.0 1013.9 -
19/06:00am 25.5 - - - - S 7 9 4 5 1013.6 1013.5 -
19/05:30am 25.4 - - - - S 6 9 3 5 1013.4 1013.3 -
19/05:00am 25.8 - - - - SW 4 9 2 5 1013.1 1013.0 -
19/04:30am 25.8 - - - - WSW 7 9 4 5 1013.0 1012.9 -
19/04:00am 25.7 - - - - WSW 7 11 4 6 1013.0 1012.9 -
19/03:30am 25.7 - - - - WSW 7 9 4 5 1013.1 1013.0 -
19/03:00am 25.6 - - - - WSW 7 11 4 6 1013.1 1013.0 -
19/02:30am 25.7 - - - - SW 7 11 4 6 1013.3 1013.2 -
19/02:00am 25.8 - - - - WSW 4 7 2 4 1013.6 1013.5 -
19/01:30am 25.8 - - - - WSW 4 6 2 3 1013.7 1013.6 -
19/01:00am 25.8 - - - - SW 6 7 3 4 1014.1 1014.0 -
19/12:30am 25.9 - - - - SSW 4 7 2 4 1014.6 1014.5 -
19/12:00am 26.0 - - - - WSW 7 11 4 6 1014.9 1014.8 -
 
Date/Time
CST
Tmp

°C
App
Tmp
°C
Dew
Point
°C
Rel
Hum
%
Delta-T

°C
Wind Press
QNH
hPa
Press
MSL
hPa
Rain
since
9 am
mm
Dir
 
Spd
km/h
Gust
km/h
Spd
kts
Gust
kts
18/11:30pm 26.4 - - - - SW 7 11 4 6 1014.9 1014.8 -
18/11:00pm 26.9 - - - - SSW 7 11 4 6 1014.5 1014.4 -
18/10:30pm 26.9 - - - - SW 7 15 4 8 1014.4 1014.3 -
18/10:00pm 27.1 - - - - WSW 7 13 4 7 1014.1 1014.0 -
18/09:30pm 27.4 - - - - SW 6 11 3 6 1013.7 1013.6 -
18/09:00pm 27.3 - - - - WSW 9 13 5 7 1013.4 1013.3 -
18/08:30pm 27.5 - - - - WSW 9 11 5 6 1013.2 1013.1 -
18/08:00pm 27.6 - - - - W 9 13 5 7 1012.9 1012.8 -
18/07:30pm 28.2 - - - - WNW 7 13 4 7 1012.5 1012.4 -
18/07:00pm 29.0 - - - - WNW 9 13 5 7 1012.1 1012.0 -
18/06:30pm 29.2 - - - - WNW 11 17 6 9 1011.6 1011.5 -
18/06:00pm 28.7 - - - - W 17 22 9 12 1010.9 1010.8 -
18/05:30pm 28.5 - - - - WNW 17 24 9 13 1010.8 1010.7 -
18/05:00pm 29.0 - - - - NW 15 26 8 14 1010.6 1010.5 -
18/04:30pm 29.2 - - - - NW 13 26 7 14 1010.7 1010.6 -
18/04:00pm 29.1 - - - - WNW 17 30 9 16 1010.7 1010.6 -
18/03:30pm 29.0 - - - - WNW 15 30 8 16 1011.0 1010.9 -
18/03:00pm 29.1 - - - - WNW 20 32 11 17 1011.3 1011.2 -
18/02:30pm 29.8 - - - - WNW 15 22 8 12 1011.7 1011.6 -
18/02:00pm 29.6 - - - - WNW 15 26 8 14 1012.2 1012.1 -
18/01:30pm 29.7 - - - - WNW 17 24 9 13 1012.9 1012.8 -
18/01:00pm 29.2 - - - - W 13 20 7 11 1013.6 1013.5 -
18/12:30pm 29.0 - - - - W 11 17 6 9 1014.3 1014.2 -
18/12:00pm 28.6 - - - - WSW 7 11 4 6 1015.0 1014.9 -
18/11:30am 28.1 - - - - WSW 7 9 4 5 1015.6 1015.5 -
18/11:00am 27.2 - - - - WSW 6 9 3 5 1015.9 1015.8 -
18/10:30am 26.6 - - - - WSW 6 9 3 5 1016.3 1016.2 -
18/10:00am 26.7 - - - - S 4 7 2 4 1016.5 1016.4 -
18/09:30am 26.9 - - - - SE 4 7 2 4 1016.3 1016.2 -
18/09:00am 25.8 - - - - ESE 6 9 3 5 1016.2 1016.1 -
18/08:30am 25.5 - - - - ESE 6 7 3 4 1015.9 1015.8 -
18/08:00am 25.2 - - - - E 7 11 4 6 1015.6 1015.5 -
18/07:30am 25.6 - - - - E 4 6 2 3 1015.1 1015.0 -
18/07:00am 24.9 - - - - ENE 4 6 2 3 1014.7 1014.6 -
18/06:30am 25.0 - - - - NE 2 6 1 3 1014.3 1014.2 -
18/06:00am 25.2 - - - - ENE 2 4 1 2 1013.8 1013.7 -
18/05:30am 25.5 - - - - CALM 0 2 0 1 1013.7 1013.6 -
18/05:00am 25.7 - - - - NNE 2 4 1 2 1013.6 1013.5 -
18/04:30am 25.9 - - - - NNW 2 4 1 2 1013.4 1013.3 -
18/04:00am 25.8 - - - - NNW 4 7 2 4 1013.3 1013.2 -
18/03:30am 25.9 - - - - NNW 4 7 2 4 1013.4 1013.3 -
18/03:00am 26.3 - - - - N 4 7 2 4 1013.5 1013.4 -
18/02:30am 26.5 - - - - NNW 4 7 2 4 1013.7 1013.6 -
18/02:00am 26.5 - - - - N 4 9 2 5 1014.0 1013.9 -
18/01:30am 26.4 - - - - NNE 4 9 2 5 1014.3 1014.2 -
18/01:00am 26.5 - - - - N 6 9 3 5 1014.5 1014.4 -
18/12:30am 26.7 - - - - NNW 6 9 3 5 1014.8 1014.7 -
18/12:00am 26.7 - - - - N 6 13 3 7 1014.9 1014.8 -
 
Date/Time
CST
Tmp

°C
App
Tmp
°C
Dew
Point
°C
Rel
Hum
%
Delta-T

°C
Wind Press
QNH
hPa
Press
MSL
hPa
Rain
since
9 am
mm
Dir
 
Spd
km/h
Gust
km/h
Spd
kts
Gust
kts
17/11:30pm 27.1 - - - - N 9 20 5 11 1014.7 1014.6 -
17/11:00pm 27.2 - - - - NW 9 20 5 11 1014.6 1014.5 -
17/10:30pm 27.3 - - - - NW 17 26 9 14 1014.4 1014.3 -
17/10:00pm 27.5 - - - - NW 7 15 4 8 1014.2 1014.1 -
17/09:30pm 27.6 - - - - NNW 6 7 3 4 1013.9 1013.8 -

Latest Capital City Observations: Canberra | Sydney | Melbourne | Brisbane | Adelaide | Perth | Hobart | Darwin

Other Formats:

Comma delimited format used in spreadsheet applications
http://www.bom.gov.au/fwo/IDD60901/IDD60901.95122.axf

JavaScript Object Notation format (JSON) in row-major order
http://www.bom.gov.au/fwo/IDD60901/IDD60901.95122.json